Tombstone, AZ

11:08 AM MST on August 21, 2014 (GMT -0700)
Sierra Vista Municipal-Libby Army Air Field | Change Station
CLOSE
Current Station
Airport
Location: Sierra Vista,
Elevation: 4718 ft
Nearby Weather Stations

Elev 4718 ft 31.59 °N, 110.34 °W | Updated 13 minutes ago

Mostly Cloudy
Mostly Cloudy
79 °F
Feels Like 79 °F
N
6
Wind Variable Wind from SE

Today
High -- | Low -- °F
--% Chance of Precip.
Yesterday
High -- | Low -- °F
Precip. -- in
5:49 AM 6:57 PM
Waning Crescent, 13% visible
Pressure 29.99 in
Visibility 10.0 miles
Clouds Few 4000 ft
Scattered Clouds 9500 ft
Mostly Cloudy 15000 ft
Dew Point 59 °F
Humidity 51%
Rainfall 0.00 in
Snow Depth Not available.
UV 6 out of 12
Pollen 4.70 out of 12
Air Quality Not available.
Flu Activity Not available.
METAR KFHU 211755Z 13005KT 10SM FEW040 SCT095 BKN150 26/15 A3016 RMK SLP155 50000

More Conditions Fewer Conditions

Pressure 29.99 in
Visibility 10.0 miles
Clouds Few 4000 ft
Scattered Clouds 9500 ft
Mostly Cloudy 15000 ft
Dew Point 59 °F
Humidity 51%
Rainfall 0.00 in
Snow Depth Not available.
UV 6 out of 12
Pollen 4.70 out of 12
Air Quality Not available.
Flu Activity Not available.
METAR KFHU 211755Z 13005KT 10SM FEW040 SCT095 BKN150 26/15 A3016 RMK SLP155 50000

More Conditions Fewer Conditions

10-Day Weather Forecast

Almanac

Astronomy

Aug. 21, 2014 Rise Set
Actual Time 5:49 AM MST 6:57 PM MST
Civil Twilight 5:23 AM MST 7:22 PM MST
Nautical Twilight 4:53 AM MST 7:52 PM MST
Astronomical Twilight 4:22 AM MST 8:23 PM MST
Moon 2:28 AM MST 4:23 PM MST
Length of Visible Light 13h 58m
Length of Day
13h 08m
Tomorrow will be 1m 46s shorter.
Waning Crescent, 13% of the Moon is Illuminated
Today
Waning Crescent
Aug 25
New
Sep 2
First Quarter
Sep 8
Full
Sep 15
Last Quarter

Today's Extremes

State Highs State Lows

Community

WunderPhotos

Upload Photos

1,745,987 photos uploaded!

WunderBlogs® & News

Nearby

Snow Depth

Station Depth Elevation
Beaver Head 14 in 7990 ft
Workman Creek 1 in 6900 ft
White Horse Lake 0 in 7180 ft
Snowslide Canyon 0 in 9730 ft

Earthquake Activity

City Distance Mag. Time & Date
Lordsburg, New Mexico 80 miles 3.1 9:13 PM MST
2014-08-15
Minimum magnitude displayed is 2.5.

Coastal Water Temperatures

Place Temperature
No Stations Reporting

Nearby Weather Stations